Time;durP1;ratioP1;P1;durP2;ratioP2;P2;SDS_P1;SDS_P2;PMS_P1;PMS_P2;Temp;Humidity;BMP_temperature;BMP_pressure;BME280_temperature;BME280_humidity;BME280_pressure;Samples;Min_cycle;Max_cycle;Signal;HPM_P1;HPM_P2
2022/11/15 00:01:24;;;;;;;;;9.75;8.75;;;;;12.03;79.01;100433.59;5018108;28;45237;-56
2022/11/15 00:03:53;;;;;;;;;8.00;6.00;;;;;12.05;78.21;100426.81;5017977;28;45412;-53
2022/11/15 00:06:18;;;;;;;;;5.60;5.40;;;;;11.90;78.86;100416.16;5018079;28;45396;-56
2022/11/15 00:08:44;;;;;;;;;8.25;5.00;;;;;11.98;78.21;100428.78;5018030;28;46069;-52
2022/11/15 00:11:10;;;;;;;;;7.75;5.50;;;;;11.94;78.27;100433.03;5017415;28;45490;-54
2022/11/15 00:13:36;;;;;;;;;4.40;3.60;;;;;11.60;78.30;100366.59;5018266;28;45470;-54
2022/11/15 00:16:01;;;;;;;;;5.00;5.00;;;;;11.91;78.46;100420.59;5018105;28;45403;-53
2022/11/15 00:18:28;;;;;;;;;5.25;5.25;;;;;11.90;77.95;100415.34;5001637;28;46913;-55
2022/11/15 00:20:53;;;;;;;;;4.60;3.60;;;;;11.71;78.15;100386.97;4997490;28;45305;-56
2022/11/15 00:23:19;;;;;;;;;9.75;6.50;;;;;11.85;78.08;100417.94;4979920;28;45479;-57
2022/11/15 00:25:44;;;;;;;;;9.75;8.75;;;;;11.63;78.15;100374.38;4997928;28;45522;-55
2022/11/15 00:28:10;;;;;;;;;4.25;4.25;;;;;11.81;77.77;100409.28;4997337;28;46349;-54
2022/11/15 00:30:35;;;;;;;;;3.00;3.00;;;;;11.79;77.53;100401.25;4997432;28;45319;-55
2022/11/15 00:33:04;;;;;;;;;6.25;5.00;;;;;11.74;77.20;100398.34;4997485;28;45763;-55
2022/11/15 00:35:32;;;;;;;;;3.60;3.60;;;;;11.70;77.38;100402.66;4997636;28;45857;-53
2022/11/15 00:37:57;;;;;;;;;8.00;4.00;;;;;11.68;77.36;100404.75;4979834;28;45671;-56
2022/11/15 00:40:23;;;;;;;;;2.00;2.00;;;;;11.57;77.21;100389.03;4997176;28;45368;-54
2022/11/15 00:42:48;;;;;;;;;5.00;5.00;;;;;11.65;77.41;100386.00;4997249;28;45370;-54
2022/11/15 00:45:14;;;;;;;;;5.00;4.00;;;;;11.63;77.40;100397.19;4997715;28;45506;-54
2022/11/15 00:47:39;;;;;;;;;7.25;5.50;;;;;11.63;77.48;100386.22;4996950;28;47015;-54
2022/11/15 00:50:05;;;;;;;;;3.75;3.75;;;;;11.62;77.43;100387.28;4997310;28;45353;-54
2022/11/15 00:52:30;;;;;;;;;6.50;4.50;;;;;11.64;77.50;100387.06;4996911;28;45364;-55
2022/11/15 00:54:56;;;;;;;;;8.25;5.50;;;;;11.61;77.29;100384.75;4997243;28;45488;-52
2022/11/15 00:57:21;;;;;;;;;5.25;3.25;;;;;11.35;76.96;100353.72;4996720;28;45364;-55
2022/11/15 00:59:47;;;;;;;;;4.00;4.00;;;;;11.29;77.61;100351.88;4997045;28;45500;-53
2022/11/15 01:02:12;;;;;;;;;6.25;3.00;;;;;11.50;77.00;100381.69;4996209;28;45423;-55
2022/11/15 01:04:38;;;;;;;;;4.50;3.00;;;;;11.50;77.30;100384.44;4997458;28;45478;-52
2022/11/15 01:07:03;;;;;;;;;4.50;3.25;;;;;11.51;76.97;100375.13;4996862;28;45625;-55
2022/11/15 01:09:28;;;;;;;;;6.25;5.00;;;;;11.51;76.98;100374.28;4996624;28;45681;-55
2022/11/15 01:11:54;;;;;;;;;4.25;2.50;;;;;11.49;77.01;100374.50;4997334;28;45428;-51
2022/11/15 01:14:19;;;;;;;;;3.75;3.75;;;;;11.46;76.76;100369.47;4997369;28;45641;-54
2022/11/15 01:16:45;;;;;;;;;3.00;3.00;;;;;11.43;77.01;100366.34;4979981;28;45549;-57
2022/11/15 01:19:11;;;;;;;;;3.00;2.00;;;;;11.03;76.52;100307.13;5016481;28;45403;-55
2022/11/15 01:21:36;;;;;;;;;3.00;3.00;;;;;11.39;76.58;100357.72;5016533;28;45422;-55
2022/11/15 01:24:02;;;;;;;;;7.00;4.00;;;;;11.34;76.81;100358.41;5016768;28;45556;-53
2022/11/15 01:26:27;;;;;;;;;4.75;4.00;;;;;11.36;76.75;100358.16;5016161;28;46312;-54
2022/11/15 01:28:53;;;;;;;;;4.00;4.00;;;;;11.29;76.44;100357.38;5016591;28;45253;-54
2022/11/15 01:31:19;;;;;;;;;4.60;4.60;;;;;11.03;76.88;100309.88;5016385;28;45304;-53
2022/11/15 01:33:46;;;;;;;;;2.60;2.00;;;;;11.17;76.47;100343.56;5016583;28;45343;-56
2022/11/15 01:36:24;;;;;;;;;6.80;5.00;;;;;10.99;76.84;100309.47;4998483;28;45675;-55
2022/11/15 01:38:56;;;;;;;;;4.00;4.00;;;;;11.04;76.54;100311.56;5016129;28;45494;-55
2022/11/15 01:41:23;;;;;;;;;4.80;4.00;;;;;11.16;76.50;100334.47;5016511;28;45384;-56
2022/11/15 01:43:51;;;;;;;;;4.00;3.00;;;;;11.14;76.48;100333.03;4998312;28;45527;-56
2022/11/15 01:46:20;;;;;;;;;8.60;5.00;;;;;10.93;76.78;100300.25;5016096;28;46098;-56
2022/11/15 01:48:45;;;;;;;;;5.00;5.00;;;;;11.11;76.45;100331.56;5016006;28;45218;-55
2022/11/15 01:51:11;;;;;;;;;3.50;2.50;;;;;10.92;76.35;100309.56;4998378;28;45293;-57
2022/11/15 01:53:38;;;;;;;;;8.20;3.60;;;;;10.26;76.24;100205.56;4981784;28;45642;-55
2022/11/15 01:56:05;;;;;;;;;4.20;4.20;;;;;10.90;75.56;100306.19;4997924;28;45569;-54
2022/11/15 01:58:30;;;;;;;;;3.40;2.80;;;;;10.87;76.33;100303.88;4998162;28;45462;-54
2022/11/15 02:00:56;;;;;;;;;3.00;3.00;;;;;10.91;76.09;100301.53;4982062;28;45472;-56
2022/11/15 02:03:22;;;;;;;;;3.00;2.00;;;;;10.85;76.49;100297.78;4997941;28;45361;-55
2022/11/15 02:05:47;;;;;;;;;5.40;4.00;;;;;10.81;76.29;100304.78;4998302;28;45748;-54
2022/11/15 02:08:19;;;;;;;;;4.75;4.75;;;;;10.41;76.26;100229.09;4981624;28;45409;-55
2022/11/15 02:10:46;;;;;;;;;6.00;4.40;;;;;10.57;76.32;100255.19;4998998;28;45452;-55
2022/11/15 02:13:13;;;;;;;;;3.80;3.80;;;;;10.77;76.48;100292.59;5015014;28;45311;-54
2022/11/15 02:15:44;;;;;;;;;5.00;3.40;;;;;10.54;75.54;100253.72;4997787;28;46229;-56
2022/11/15 02:18:31;;;;;;;;;3.40;3.20;;;;;10.69;75.59;100285.47;4957355;28;46106;-53
2022/11/15 02:20:58;;;;;;;;;4.20;4.20;;;;;10.44;75.97;100247.88;4995979;28;45483;-54
2022/11/15 02:23:33;;;;;;;;;3.00;3.00;;;;;10.56;75.38;100278.16;4978291;28;45660;-56
2022/11/15 02:26:29;;;;;;;;;3.00;3.00;;;;;10.46;76.09;100272.34;4995287;28;46153;-53
2022/11/15 02:29:16;;;;;;;;;2.80;2.80;;;;;10.38;75.08;100266.06;4995860;28;45359;-60
2022/11/15 02:31:59;;;;;;;;;6.20;4.20;;;;;10.36;76.46;100251.69;4995485;28;47246;-54
2022/11/15 02:34:31;;;;;;;;;2.00;2.00;;;;;10.14;75.55;100221.06;4996316;28;45226;-55
2022/11/15 02:37:14;;;;;;;;;4.20;2.40;;;;;10.32;75.74;100253.22;4978515;28;46626;-55
2022/11/15 02:39:50;;;;;;;;;4.40;4.00;;;;;10.32;75.36;100253.22;4978083;28;45376;-54
2022/11/15 02:45:12;;;;;;;;;3.40;3.40;;;;;10.40;74.89;100243.84;4980679;28;45421;-54
2022/11/15 02:47:42;;;;;;;;;4.00;4.00;;;;;10.38;75.49;100244.09;4961392;28;45352;-53
2022/11/15 02:50:12;;;;;;;;;6.60;3.80;;;;;10.38;75.43;100238.63;4961826;28;45369;-56
2022/11/15 02:52:37;;;;;;;;;3.20;2.20;;;;;10.35;75.19;100235.47;4977741;28;45321;-53
2022/11/15 02:55:03;;;;;;;;;7.25;5.00;;;;;10.03;74.66;100192.44;4995635;28;45360;-55
2022/11/15 02:57:44;;;;;;;;;3.75;2.25;;;;;10.19;75.40;100213.00;4977420;28;47287;-51
2022/11/15 03:00:20;;;;;;;;;2.80;2.80;;;;;10.26;75.32;100212.97;4979049;28;45408;-51
2022/11/15 03:03:16;;;;;;;;;3.20;2.00;;;;;10.27;74.40;100220.97;4979129;28;45381;-54
2022/11/15 03:06:06;;;;;;;;;2.80;2.40;;;;;9.92;74.68;100166.59;4995339;28;45496;-51
2022/11/15 03:08:33;;;;;;;;;4.20;3.20;;;;;9.96;75.12;100177.94;4980399;28;45499;-51
2022/11/15 03:11:19;;;;;;;;;3.80;3.00;;;;;10.15;75.45;100200.81;4961320;28;45767;-50
2022/11/15 03:13:47;;;;;;;;;3.00;2.60;;;;;10.09;75.78;100199.78;4995063;28;45247;-53
2022/11/15 03:16:26;;;;;;;;;5.40;4.00;;;;;10.02;75.12;100182.53;4995618;28;45253;-51
2022/11/15 03:19:13;;;;;;;;;2.40;2.40;;;;;10.14;74.67;100188.16;4990802;28;45508;-51
2022/11/15 03:21:39;;;;;;;;;3.00;3.00;;;;;10.18;75.36;100194.88;4996316;28;45542;-55
2022/11/15 03:24:05;;;;;;;;;4.60;3.40;;;;;10.17;75.61;100188.56;5014774;28;45442;-54
2022/11/15 03:26:31;;;;;;;;;2.00;2.00;;;;;10.18;75.10;100183.91;4989678;28;45649;-52
2022/11/15 03:29:05;;;;;;;;;4.75;3.75;;;;;9.93;74.63;100143.59;4976987;28;45439;-53
2022/11/15 03:31:47;;;;;;;;;2.00;2.00;;;;;10.20;74.24;100180.94;4961302;28;45549;-55
2022/11/15 03:34:21;;;;;;;;;7.40;4.00;;;;;9.92;74.87;100144.66;4979765;28;45450;-52
2022/11/15 03:36:47;;;;;;;;;4.60;2.80;;;;;10.15;75.20;100185.19;4961807;28;45297;-56
2022/11/15 03:39:12;;;;;;;;;5.00;2.00;;;;;10.13;74.72;100172.75;4961053;28;46445;-53
2022/11/15 03:41:48;;;;;;;;;2.75;2.75;;;;;10.12;75.20;100173.81;4994759;28;45474;-55
2022/11/15 03:44:37;;;;;;;;;8.20;3.20;;;;;10.13;75.06;100162.63;4978592;28;45423;-52
2022/11/15 03:47:32;;;;;;;;;4.20;2.40;;;;;10.13;75.32;100162.63;4995366;28;45361;-56
2022/11/15 03:50:14;;;;;;;;;4.20;3.80;;;;;9.81;74.84;100124.28;4977089;28;46739;-53
2022/11/15 03:52:40;;;;;;;;;2.00;2.00;;;;;10.00;74.92;100149.03;4976864;28;45309;-56
2022/11/15 03:55:07;;;;;;;;;7.00;4.75;;;;;10.09;74.97;100166.88;4961281;28;45328;-54
2022/11/15 03:57:32;;;;;;;;;3.80;3.80;;;;;10.12;75.07;100160.09;4977438;28;45465;-55
2022/11/15 03:59:58;;;;;;;;;3.25;3.25;;;;;10.05;75.13;100146.47;4994602;28;45317;-52
2022/11/15 04:02:24;;;;;;;;;5.00;2.00;;;;;9.79;74.55;100100.91;4960667;28;45513;-55
2022/11/15 04:04:49;;;;;;;;;3.50;3.50;;;;;10.10;74.79;100151.28;4960951;28;45255;-53
2022/11/15 04:07:15;;;;;;;;;6.75;4.00;;;;;10.00;75.24;100152.63;4994879;28;45501;-55
2022/11/15 04:12:30;;;;;;;;;4.00;3.00;;;;;9.59;75.11;100077.22;4994760;28;45527;-55
2022/11/15 04:15:09;;;;;;;;;3.20;3.00;;;;;9.99;75.60;100148.19;4978073;28;45519;-55
2022/11/15 04:17:37;;;;;;;;;2.00;2.00;;;;;9.88;75.05;100129.72;4995015;28;45430;-53
2022/11/15 04:25:31;;;;;;;;;3.20;3.20;;;;;9.89;75.69;100143.19;5014515;28;45377;-56
2022/11/15 04:27:57;;;;;;;;;3.25;3.00;;;;;9.72;75.68;100120.97;4996318;28;45391;-55
2022/11/15 04:30:23;;;;;;;;;3.00;3.00;;;;;9.85;76.15;100133.75;5013913;28;46216;-56
2022/11/15 04:32:48;;;;;;;;;2.00;2.00;;;;;9.88;75.45;100132.47;5013720;28;45361;-53
2022/11/15 04:35:14;;;;;;;;;3.00;3.00;;;;;9.83;76.27;100127.63;5014133;28;45383;-54
2022/11/15 04:37:39;;;;;;;;;2.50;2.50;;;;;9.68;76.09;100097.81;4998010;28;45426;-55
2022/11/15 04:40:05;;;;;;;;;3.00;3.00;;;;;9.86;75.96;100126.34;5017109;28;45950;-51
2022/11/15 04:42:31;;;;;;;;;2.00;2.00;;;;;9.77;76.32;100112.94;5017315;28;45469;-55
2022/11/15 04:44:56;;;;;;;;;2.25;2.25;;;;;9.56;76.19;100081.25;5017101;28;45348;-55
2022/11/15 04:47:21;;;;;;;;;4.00;4.00;;;;;9.79;76.36;100111.88;5017382;28;45512;-54
2022/11/15 04:49:47;;;;;;;;;1.00;1.00;;;;;9.74;75.96;100107.06;5017338;28;45408;-55
2022/11/15 04:52:12;;;;;;;;;3.00;3.00;;;;;9.44;75.98;100059.22;5017025;28;45397;-53
2022/11/15 04:54:38;;;;;;;;;4.00;2.00;;;;;9.77;75.96;100098.41;4998896;28;45391;-50
2022/11/15 04:57:03;;;;;;;;;6.75;3.75;;;;;9.73;75.85;100099.91;4999083;28;45373;-55
2022/11/15 04:59:29;;;;;;;;;2.75;2.25;;;;;9.73;75.92;100094.41;5016743;28;46195;-56
2022/11/15 05:01:54;;;;;;;;;3.50;1.50;;;;;9.69;76.27;100091.28;4999203;28;45434;-54
2022/11/15 05:04:20;;;;;;;;;1.50;1.50;;;;;9.72;76.71;100092.75;5016397;28;45194;-50
2022/11/15 05:06:47;;;;;;;;;4.00;2.00;;;;;9.70;76.10;100092.97;4999421;28;45484;-54
2022/11/15 05:09:15;;;;;;;;;3.60;3.20;;;;;9.68;76.67;100086.88;4998719;28;45991;-52
2022/11/15 05:11:41;;;;;;;;;3.40;3.40;;;;;9.66;77.17;100099.09;5016913;28;45419;-55
2022/11/15 05:14:06;;;;;;;;;2.75;2.75;;;;;9.66;76.22;100093.63;5016648;28;45355;-56
2022/11/15 05:16:32;;;;;;;;;2.50;2.50;;;;;9.66;76.97;100090.88;4999283;28;45329;-55
2022/11/15 05:18:57;;;;;;;;;4.00;2.50;;;;;9.65;76.67;100084.56;5006744;28;46132;-54
2022/11/15 05:21:22;;;;;;;;;5.00;3.50;;;;;9.67;77.80;100089.81;4996415;28;45320;-51
2022/11/15 05:23:48;;;;;;;;;3.25;2.75;;;;;9.59;76.99;100077.22;4996862;28;45340;-52
2022/11/15 05:26:14;;;;;;;;;3.00;2.25;;;;;9.65;77.35;100089.22;4996857;28;45258;-54
2022/11/15 05:28:40;;;;;;;;;3.80;3.80;;;;;9.71;76.49;100085.59;4978585;28;45856;-55
2022/11/15 05:31:08;;;;;;;;;3.75;3.75;;;;;8.88;76.89;99941.22;4996568;28;45323;-55
2022/11/15 05:33:33;;;;;;;;;7.00;3.60;;;;;9.77;76.80;100091.00;4996626;28;45785;-53
2022/11/15 05:36:27;;;;;;;;;3.00;3.00;;;;;9.80;76.59;100094.34;4996759;28;45649;-53
2022/11/15 05:38:53;;;;;;;;;7.60;3.80;;;;;9.79;77.42;100093.53;4969619;28;46318;-56
2022/11/15 05:41:20;;;;;;;;;4.75;2.00;;;;;9.86;77.11;100104.44;4978889;28;45341;-54
2022/11/15 05:43:45;;;;;;;;;3.60;3.60;;;;;9.80;77.68;100092.47;4979095;28;45434;-51
2022/11/15 05:46:12;;;;;;;;;3.75;3.75;;;;;9.79;77.25;100076.22;4996852;28;45241;-56
2022/11/15 05:48:38;;;;;;;;;3.40;3.20;;;;;9.92;77.14;100094.50;4978378;28;45768;-55
2022/11/15 05:51:04;;;;;;;;;4.80;4.80;;;;;9.44;77.26;100014.56;4946660;28;46286;-51
2022/11/15 05:53:29;;;;;;;;;4.50;4.50;;;;;9.82;78.20;100079.38;4978623;28;45297;-54
2022/11/15 05:55:55;;;;;;;;;5.75;3.25;;;;;9.84;77.15;100080.00;4962839;28;46047;-55
2022/11/15 05:58:20;;;;;;;;;4.25;4.25;;;;;9.57;77.29;100030.03;4978276;28;47597;-54
2022/11/15 06:00:46;;;;;;;;;6.00;4.00;;;;;9.83;77.21;100066.50;4996339;28;45375;-56
2022/11/15 06:03:13;;;;;;;;;8.25;7.00;;;;;9.83;78.31;100066.50;4996317;28;45388;-55
2022/11/15 06:05:39;;;;;;;;;5.80;3.80;;;;;9.62;77.46;100022.81;4977970;28;45657;-57
2022/11/15 06:08:05;;;;;;;;;5.50;5.50;;;;;9.81;77.88;100055.75;4995963;28;45382;-54
2022/11/15 06:10:30;;;;;;;;;6.50;4.50;;;;;9.87;78.35;100052.13;4995816;28;45348;-55
2022/11/15 06:12:59;;;;;;;;;5.25;5.25;;;;;9.92;78.05;100042.41;4996085;28;45385;-54
2022/11/15 06:15:25;;;;;;;;;7.00;4.60;;;;;9.69;77.72;100016.44;4996248;28;45233;-55
2022/11/15 06:17:50;;;;;;;;;5.00;3.75;;;;;9.95;77.88;100055.66;4995684;28;46702;-55
2022/11/15 06:20:16;;;;;;;;;4.00;4.00;;;;;9.96;77.50;100049.09;4977782;28;46325;-54
2022/11/15 06:22:41;;;;;;;;;9.00;7.50;;;;;9.95;78.12;100041.94;4995912;28;45222;-49
2022/11/15 06:25:07;;;;;;;;;4.00;4.00;;;;;9.28;77.91;99918.19;4978339;28;45510;-52
2022/11/15 06:27:32;;;;;;;;;7.75;6.50;;;;;10.06;77.85;100037.63;4995805;28;45597;-55
2022/11/15 06:29:58;;;;;;;;;5.00;5.00;;;;;10.04;77.84;100014.00;4995428;28;45305;-55
2022/11/15 06:32:24;;;;;;;;;4.00;4.00;;;;;10.06;78.00;100013.78;4988497;28;45550;-54
2022/11/15 06:34:49;;;;;;;;;7.00;4.00;;;;;10.06;77.53;100012.94;4998111;28;45439;-54
2022/11/15 06:37:17;;;;;;;;;7.25;7.25;;;;;9.80;78.26;99966.38;5015616;28;46777;-56
2022/11/15 06:39:43;;;;;;;;;5.80;5.80;;;;;10.08;77.73;100003.44;5015622;28;45371;-52
2022/11/15 06:42:08;;;;;;;;;4.00;4.00;;;;;10.06;78.15;100005.56;5015892;28;45380;-53
2022/11/15 06:44:34;;;;;;;;;3.75;3.75;;;;;10.09;78.23;99998.78;4998206;28;45649;-54
2022/11/15 06:47:00;;;;;;;;;4.25;3.75;;;;;10.06;78.07;99986.38;5015231;28;45407;-56
2022/11/15 06:49:25;;;;;;;;;7.00;4.75;;;;;10.03;78.44;99984.91;4997727;28;45423;-55
2022/11/15 06:51:51;;;;;;;;;3.75;3.75;;;;;9.80;78.34;99960.06;5015529;28;45428;-55
2022/11/15 06:54:16;;;;;;;;;4.25;4.25;;;;;9.98;78.98;99986.69;4981165;28;45382;-55
2022/11/15 06:56:41;;;;;;;;;7.00;7.00;;;;;9.99;78.40;99991.91;5015302;28;46253;-55
2022/11/15 06:59:07;;;;;;;;;4.50;4.50;;;;;9.94;78.94;99978.06;5014790;28;45343;-53
2022/11/15 07:01:32;;;;;;;;;4.50;4.50;;;;;9.94;78.89;99964.38;4997675;28;45885;-53
2022/11/15 07:03:58;;;;;;;;;4.00;4.00;;;;;9.88;79.45;99955.13;4997243;28;45329;-56
2022/11/15 07:06:24;;;;;;;;;5.50;4.75;;;;;9.93;78.78;99964.59;5015300;28;45625;-54
2022/11/15 07:08:49;;;;;;;;;5.25;4.00;;;;;9.90;78.64;99946.69;5015070;28;45394;-56
2022/11/15 07:11:15;;;;;;;;;4.75;4.75;;;;;9.84;79.11;99926.50;5015190;28;45376;-56
2022/11/15 07:13:40;;;;;;;;;8.00;4.00;;;;;9.90;79.02;99932.97;4997411;28;45387;-56
2022/11/15 07:16:07;;;;;;;;;5.00;3.00;;;;;9.88;79.68;99938.69;5014919;28;46276;-56
2022/11/15 07:18:37;;;;;;;;;8.40;6.00;;;;;9.88;79.65;99949.66;5009287;28;45327;-53
2022/11/15 07:21:07;;;;;;;;;6.40;4.40;;;;;9.69;79.08;99915.06;4955496;28;45371;-52
2022/11/15 07:23:33;;;;;;;;;4.00;2.60;;;;;9.95;79.63;99960.56;5015258;28;45439;-52
2022/11/15 07:25:58;;;;;;;;;7.25;6.50;;;;;9.84;78.94;99926.50;5014691;28;46710;-55
2022/11/15 07:28:25;;;;;;;;;3.75;3.75;;;;;9.76;79.10;99908.44;5014982;28;45328;-54
2022/11/15 07:30:51;;;;;;;;;5.60;4.80;;;;;10.02;79.79;99950.34;4997211;28;45453;-55
2022/11/15 07:33:16;;;;;;;;;6.00;4.25;;;;;10.00;79.02;99948.91;5014851;28;45225;-52
2022/11/15 07:35:42;;;;;;;;;6.00;4.00;;;;;10.06;79.61;99950.72;5014718;28;46326;-55
2022/11/15 07:38:08;;;;;;;;;4.60;3.40;;;;;10.12;79.39;99960.78;5014574;28;45376;-51
2022/11/15 07:40:34;;;;;;;;;9.25;4.75;;;;;10.10;80.02;99946.47;5015232;28;45299;-56
2022/11/15 07:43:04;;;;;;;;;4.50;4.50;;;;;10.13;79.66;99945.16;5015259;28;45371;-53
2022/11/15 07:45:30;;;;;;;;;7.00;5.20;;;;;10.13;79.95;99928.72;4996678;28;45779;-51
2022/11/15 07:47:56;;;;;;;;;7.00;4.25;;;;;10.20;79.15;99945.09;5014851;28;45256;-52
2022/11/15 07:50:22;;;;;;;;;5.80;4.20;;;;;10.20;79.42;99924.00;4996875;28;45371;-52
2022/11/15 07:52:56;;;;;;;;;3.40;3.40;;;;;10.24;80.00;99929.88;4981346;28;45341;-53
2022/11/15 07:55:23;;;;;;;;;8.20;5.00;;;;;10.21;79.73;99913.84;4980656;28;45790;-52
2022/11/15 07:57:48;;;;;;;;;5.60;3.00;;;;;10.17;79.52;99897.88;5014605;28;45384;-54
2022/11/15 08:00:14;;;;;;;;;7.25;5.25;;;;;10.26;79.58;99916.75;4996866;28;45419;-54
2022/11/15 08:02:40;;;;;;;;;9.00;5.80;;;;;10.22;79.60;99890.84;5014707;28;45408;-55
2022/11/15 08:05:06;;;;;;;;;7.00;5.00;;;;;10.33;80.14;99903.78;4996700;28;46668;-56
2022/11/15 08:07:31;;;;;;;;;7.25;5.50;;;;;10.35;79.72;99900.81;5014048;28;45383;-56
2022/11/15 08:09:58;;;;;;;;;6.00;3.75;;;;;10.39;79.93;99900.13;5014383;28;45434;-54
2022/11/15 08:12:23;;;;;;;;;3.80;3.80;;;;;10.43;79.63;99898.63;4997994;28;45425;-55
2022/11/15 08:14:49;;;;;;;;;4.50;4.50;;;;;10.43;79.34;99895.91;5017911;28;45375;-56
2022/11/15 08:17:14;;;;;;;;;4.00;3.00;;;;;10.26;78.63;99859.97;5000002;28;45402;-55
2022/11/15 08:19:40;;;;;;;;;5.25;4.00;;;;;10.31;78.47;99865.63;5006051;28;45226;-55
2022/11/15 08:22:06;;;;;;;;;11.00;6.50;;;;;10.52;78.63;99887.31;4998441;28;45178;-51
2022/11/15 08:24:32;;;;;;;;;7.80;5.00;;;;;10.63;78.59;99902.16;4980011;28;45401;-54
2022/11/15 08:26:57;;;;;;;;;7.50;5.00;;;;;10.63;78.69;99900.25;4997880;28;45321;-53
2022/11/15 08:29:23;;;;;;;;;4.00;4.00;;;;;10.68;78.85;99902.31;4997948;28;45622;-57
2022/11/15 08:31:48;;;;;;;;;6.75;5.25;;;;;10.64;78.24;99890.97;4998351;28;45459;-55
2022/11/15 08:34:14;;;;;;;;;4.50;4.00;;;;;10.70;77.80;99879.03;4979670;28;46603;-54
2022/11/15 08:36:39;;;;;;;;;11.25;8.75;;;;;10.78;78.15;99883.34;4997254;28;45346;-54
2022/11/15 08:39:05;;;;;;;;;2.50;2.50;;;;;10.78;77.67;99885.28;4997735;28;45450;-55
2022/11/15 08:41:35;;;;;;;;;7.75;5.00;;;;;10.83;77.79;99879.88;4997786;28;45356;-54
2022/11/15 08:44:01;;;;;;;;;3.80;3.40;;;;;10.88;77.29;99880.03;4979383;28;46693;-54
2022/11/15 08:46:26;;;;;;;;;3.75;3.75;;;;;10.92;77.04;99881.25;4997225;28;45327;-55
2022/11/15 08:48:52;;;;;;;;;9.00;6.00;;;;;10.94;77.38;99883.75;4997556;28;45419;-51
2022/11/15 08:51:17;;;;;;;;;7.00;6.00;;;;;11.00;77.67;99871.84;4997295;28;45317;-52
2022/11/15 08:53:43;;;;;;;;;4.25;4.25;;;;;11.04;77.09;99866.72;4997017;28;45913;-54
2022/11/15 08:56:09;;;;;;;;;4.25;4.25;;;;;11.07;76.99;99867.06;4997126;28;45445;-51
2022/11/15 08:58:35;;;;;;;;;2.00;2.00;;;;;11.12;77.35;99858.13;4996868;28;45451;-53
2022/11/15 09:01:00;;;;;;;;;4.20;2.80;;;;;10.96;76.79;99822.06;4997101;28;45411;-52
2022/11/15 09:03:26;;;;;;;;;4.25;3.00;;;;;10.76;77.00;99778.44;4997145;28;45875;-56
2022/11/15 09:05:55;;;;;;;;;3.00;3.00;;;;;11.21;76.62;99844.88;4996700;28;45748;-52
2022/11/15 09:08:21;;;;;;;;;6.60;4.00;;;;;11.22;76.75;99832.81;4979454;28;45301;-52
2022/11/15 09:10:47;;;;;;;;;4.25;4.25;;;;;11.24;76.99;99844.38;4996581;28;45522;-57
2022/11/15 09:13:13;;;;;;;;;4.75;3.75;;;;;11.00;76.83;99796.84;4998839;28;47684;-53
2022/11/15 09:15:39;;;;;;;;;6.20;4.00;;;;;11.29;76.81;99841.75;4998729;28;45494;-52
2022/11/15 09:18:04;;;;;;;;;6.75;5.00;;;;;11.30;76.99;99832.44;5016914;28;45433;-53
2022/11/15 09:20:30;;;;;;;;;4.00;3.25;;;;;11.28;76.56;99812.63;4967681;28;45395;-57
2022/11/15 09:22:59;;;;;;;;;3.25;3.25;;;;;11.32;76.18;99823.97;4995805;28;45577;-56
2022/11/15 09:25:25;;;;;;;;;6.20;2.60;;;;;11.31;76.57;99823.13;4978668;28;45389;-54
2022/11/15 09:27:50;;;;;;;;;4.00;3.00;;;;;11.37;76.30;99838.66;4962875;28;45409;-56
2022/11/15 09:30:16;;;;;;;;;3.25;3.00;;;;;11.40;76.14;99831.84;4996596;28;45823;-55
2022/11/15 09:32:41;;;;;;;;;2.75;2.25;;;;;11.43;75.58;99844.25;4996148;28;46188;-56
2022/11/15 09:35:07;;;;;;;;;2.25;2.25;;;;;11.14;75.79;99779.06;4978465;28;45936;-55
2022/11/15 09:37:32;;;;;;;;;2.50;2.50;;;;;11.54;75.21;99837.94;4996954;28;45317;-54
2022/11/15 09:39:58;;;;;;;;;2.00;2.00;;;;;11.31;75.37;99792.09;4996689;28;45360;-54
2022/11/15 09:42:54;;;;;;;;;4.00;4.00;;;;;11.56;75.26;99829.44;4996405;28;46165;-57
2022/11/15 09:45:39;;;;;;;;;3.80;3.40;;;;;11.63;75.28;99835.66;4978438;28;45447;-56
2022/11/15 09:48:32;;;;;;;;;4.00;4.00;;;;;11.65;75.33;99822.50;4981061;28;45412;-56
2022/11/15 09:51:00;;;;;;;;;1.60;1.60;;;;;11.68;75.68;99823.94;4996513;28;45372;-57
2022/11/15 09:53:42;;;;;;;;;3.40;3.40;;;;;11.48;75.78;99794.94;4996446;28;47138;-56
2022/11/15 09:56:20;;;;;;;;;4.40;4.40;;;;;11.34;75.95;99781.44;4995773;28;45440;-56
2022/11/15 09:59:11;;;;;;;;;2.80;2.00;;;;;11.68;76.05;99832.19;4996277;28;45407;-55
2022/11/15 10:01:48;;;;;;;;;3.20;3.00;;;;;11.68;76.10;99818.44;4978383;28;45501;-57
2022/11/15 10:04:14;;;;;;;;;3.00;2.00;;;;;11.69;76.42;99806.34;4978192;28;46272;-54
2022/11/15 10:06:43;;;;;;;;;2.50;2.50;;;;;11.66;76.55;99811.28;4973748;28;45691;-52
2022/11/15 10:10:01;;;;;;;;;3.60;2.00;;;;;11.69;76.86;99806.34;4962834;28;45479;-56
2022/11/15 10:12:27;;;;;;;;;2.60;2.60;;;;;11.72;76.66;99805.84;4871562;28;45630;-56
2022/11/15 10:15:01;;;;;;;;;4.50;2.00;;;;;11.64;76.72;99793.34;4898727;28;45358;-56
2022/11/15 10:17:45;;;;;;;;;3.00;3.00;;;;;11.74;77.19;99787.22;4975512;28;45419;-57
2022/11/15 10:20:29;;;;;;;;;2.60;2.60;;;;;11.62;77.20;99757.00;5002253;28;45665;-54
2022/11/15 10:23:16;;;;;;;;;3.20;3.20;;;;;11.82;77.02;99767.59;4958731;28;45807;-57
2022/11/15 10:25:43;;;;;;;;;4.00;4.00;;;;;11.83;77.06;99761.00;4993347;28;46761;-57
2022/11/15 10:28:21;;;;;;;;;3.20;2.60;;;;;11.85;77.43;99760.78;5011839;28;45516;-57
2022/11/15 10:30:51;;;;;;;;;4.20;3.00;;;;;11.57;77.73;99719.25;4995482;28;45561;-51
2022/11/15 10:33:35;;;;;;;;;4.80;3.80;;;;;11.82;77.69;99766.75;4974469;28;45496;-61
2022/11/15 10:36:09;;;;;;;;;8.40;2.20;;;;;11.81;77.91;99760.44;4996439;28;46453;-59
2022/11/15 10:38:50;;;;;;;;;8.20;4.80;;;;;11.81;77.98;99749.44;4993989;28;45458;-58
2022/11/15 10:41:17;;;;;;;;;2.00;2.00;;;;;11.79;78.10;99746.91;5014105;28;45366;-59
2022/11/15 10:43:42;;;;;;;;;2.80;2.80;;;;;11.40;78.50;99683.47;5014719;28;45345;-60
2022/11/15 10:46:19;;;;;;;;;4.50;3.00;;;;;11.76;78.54;99744.69;4996035;28;46058;-59
2022/11/15 10:48:45;;;;;;;;;3.00;3.00;;;;;11.77;78.55;99734.50;4996456;28;45413;-59
2022/11/15 10:51:20;;;;;;;;;4.00;4.00;;;;;11.76;78.70;99730.94;5003330;28;45356;-59
2022/11/15 10:53:45;;;;;;;;;2.00;2.00;;;;;11.69;78.78;99708.22;4994618;28;45374;-58
2022/11/15 10:56:12;;;;;;;;;3.00;3.00;;;;;11.75;79.36;99717.41;5003671;28;45421;-59
2022/11/15 10:58:42;;;;;;;;;3.40;3.20;;;;;11.73;79.08;99714.91;4959818;28;45641;-60
2022/11/15 11:01:12;;;;;;;;;4.20;3.20;;;;;11.56;79.45;99681.03;4995467;28;45529;-60
2022/11/15 11:03:42;;;;;;;;;7.60;3.60;;;;;11.59;79.35;99666.81;5012574;28;45336;-61
2022/11/15 11:06:10;;;;;;;;;6.60;3.00;;;;;11.74;79.54;99705.56;4996067;28;45827;-61
2022/11/15 11:08:37;;;;;;;;;4.00;4.00;;;;;11.49;79.41;99654.53;5012704;28;45291;-58
2022/11/15 11:11:03;;;;;;;;;4.80;4.80;;;;;11.73;79.94;99687.41;4978641;28;45765;-59
2022/11/15 11:13:34;;;;;;;;;4.20;3.00;;;;;11.72;80.18;99688.50;4994349;28;46016;-60
2022/11/15 11:16:05;;;;;;;;;4.80;3.60;;;;;11.69;80.30;99680.72;4992541;28;46158;-60
2022/11/15 11:18:38;;;;;;;;;4.20;4.20;;;;;11.75;80.44;99682.50;4980531;28;45328;-61
2022/11/15 11:21:17;;;;;;;;;4.00;3.00;;;;;11.77;80.29;99672.13;5005339;28;45458;-60
2022/11/15 11:23:50;;;;;;;;;2.80;2.80;;;;;11.68;80.22;99654.34;4973054;28;45413;-60
2022/11/15 11:26:21;;;;;;;;;5.60;4.40;;;;;11.50;80.52;99626.00;4977548;28;45550;-56
2022/11/15 11:29:06;;;;;;;;;5.00;5.00;;;;;11.78;80.89;99668.28;5013646;28;45731;-60
2022/11/15 11:31:58;;;;;;;;;3.40;3.40;;;;;11.78;80.86;99665.53;4959458;28;45383;-60
2022/11/15 11:34:45;;;;;;;;;6.20;5.00;;;;;11.79;80.65;99669.94;4982560;28;45375;-60
2022/11/15 11:37:33;;;;;;;;;3.00;3.00;;;;;11.78;81.22;99668.28;4975153;28;48068;-58
2022/11/15 11:40:10;;;;;;;;;4.60;4.60;;;;;11.74;81.62;99656.09;4988271;28;45528;-60
2022/11/15 11:42:48;;;;;;;;;5.00;5.00;;;;;11.74;82.05;99645.09;4975649;28;45421;-59
2022/11/15 11:45:13;;;;;;;;;5.80;5.80;;;;;11.51;81.77;99605.66;4999795;28;45412;-60
2022/11/15 11:47:40;;;;;;;;;8.00;5.00;;;;;11.86;81.82;99645.06;5016192;28;46960;-60
2022/11/15 11:50:15;;;;;;;;;5.20;4.00;;;;;11.88;81.83;99653.88;5009224;28;45415;-59
2022/11/15 11:53:11;;;;;;;;;6.80;6.80;;;;;11.87;82.05;99641.22;4991227;28;45761;-62